Home > Products > Valid Products > TAF

000
FTUS43 KARX 191120
TAFLSE
TAF
KLSE 191120Z 1912/2012 13008KT P6SM VCSH BKN100
     FM191500 15008KT P6SM BKN080
     FM192230 30007KT P6SM -SHRA VCTS BKN035CB
     FM200100 32011KT 5SM -SHRA BR BKN025
     FM200800 31015G22KT P6SM BKN050=



000
FTUS43 KARX 191120
TAFRST
TAF
KRST 191120Z 1912/2012 15013KT P6SM VCSH BKN070
      TEMPO 1912/1915 -SHRA
     FM191500 17011KT P6SM SCT030 BKN060
     FM191930 28012KT P6SM -SHRA VCTS BKN030CB
     FM192200 31013KT 5SM -SHRA BR OVC022
     FM200200 32016G23KT P6SM BKN050=



000
FTUS43 KARX 191120
TAFLSE
TAF
KLSE 191120Z 1912/2012 13008KT P6SM VCSH BKN100
     FM191500 15008KT P6SM BKN080
     FM192230 30007KT P6SM -SHRA VCTS BKN035CB
     FM200100 32011KT 5SM -SHRA BR BKN025
     FM200800 31015G22KT P6SM BKN050=



000
FTUS43 KARX 191120
TAFRST
TAF
KRST 191120Z 1912/2012 15013KT P6SM VCSH BKN070
      TEMPO 1912/1915 -SHRA
     FM191500 17011KT P6SM SCT030 BKN060
     FM191930 28012KT P6SM -SHRA VCTS BKN030CB
     FM192200 31013KT 5SM -SHRA BR OVC022
     FM200200 32016G23KT P6SM BKN050=



000
FTUS43 KARX 191120
TAFRST
TAF
KRST 191120Z 1912/2012 15013KT P6SM VCSH BKN070
      TEMPO 1912/1915 -SHRA
     FM191500 17011KT P6SM SCT030 BKN060
     FM191930 28012KT P6SM -SHRA VCTS BKN030CB
     FM192200 31013KT 5SM -SHRA BR OVC022
     FM200200 32016G23KT P6SM BKN050=



000
FTUS43 KARX 191120
TAFLSE
TAF
KLSE 191120Z 1912/2012 13008KT P6SM VCSH BKN100
     FM191500 15008KT P6SM BKN080
     FM192230 30007KT P6SM -SHRA VCTS BKN035CB
     FM200100 32011KT 5SM -SHRA BR BKN025
     FM200800 31015G22KT P6SM BKN050=



000
FTUS43 KARX 191120
TAFLSE
TAF
KLSE 191120Z 1912/2012 13008KT P6SM VCSH BKN100
     FM191500 15008KT P6SM BKN080
     FM192230 30007KT P6SM -SHRA VCTS BKN035CB
     FM200100 32011KT 5SM -SHRA BR BKN025
     FM200800 31015G22KT P6SM BKN050=



000
FTUS43 KARX 191120
TAFRST
TAF
KRST 191120Z 1912/2012 15013KT P6SM VCSH BKN070
      TEMPO 1912/1915 -SHRA
     FM191500 17011KT P6SM SCT030 BKN060
     FM191930 28012KT P6SM -SHRA VCTS BKN030CB
     FM192200 31013KT 5SM -SHRA BR OVC022
     FM200200 32016G23KT P6SM BKN050=



000
FTUS43 KARX 190550 AAA
TAFRST
TAF AMD
KRST 190550Z 1906/2006 12010KT P6SM VCSH SCT045 OVC080
      TEMPO 1906/1909 -SHRA BKN045
     FM191100 15013KT 5SM -SHRA BR BKN025
     FM191500 18011KT P6SM OVC014
     FM191900 28012KT P6SM -SHRA BKN030
     FM192200 31010KT 5SM -SHRA BR OVC028=



000
FTUS43 KARX 190550 AAA
TAFRST
TAF AMD
KRST 190550Z 1906/2006 12010KT P6SM VCSH SCT045 OVC080
      TEMPO 1906/1909 -SHRA BKN045
     FM191100 15013KT 5SM -SHRA BR BKN025
     FM191500 18011KT P6SM OVC014
     FM191900 28012KT P6SM -SHRA BKN030
     FM192200 31010KT 5SM -SHRA BR OVC028=



000
FTUS43 KARX 190550 AAA
TAFRST
TAF AMD
KRST 190550Z 1906/2006 12010KT P6SM VCSH SCT045 OVC080
      TEMPO 1906/1909 -SHRA BKN045
     FM191100 15013KT 5SM -SHRA BR BKN025
     FM191500 18011KT P6SM OVC014
     FM191900 28012KT P6SM -SHRA BKN030
     FM192200 31010KT 5SM -SHRA BR OVC028=



000
FTUS43 KARX 190550 AAA
TAFRST
TAF AMD
KRST 190550Z 1906/2006 12010KT P6SM VCSH SCT045 OVC080
      TEMPO 1906/1909 -SHRA BKN045
     FM191100 15013KT 5SM -SHRA BR BKN025
     FM191500 18011KT P6SM OVC014
     FM191900 28012KT P6SM -SHRA BKN030
     FM192200 31010KT 5SM -SHRA BR OVC028=



000
FTUS43 KARX 190520
TAFRST
TAF
KRST 190520Z 1906/2006 12008KT P6SM -SHRA BKN050 OVC080
      TEMPO 1906/1907 4SM -SHRA BR
     FM191100 15013KT 5SM -SHRA BR BKN025
     FM191500 18011KT P6SM OVC014
     FM191900 28012KT P6SM -SHRA BKN030
     FM192200 31010KT 5SM -SHRA BR OVC028=



000
FTUS43 KARX 190520
TAFLSE
TAF
KLSE 190520Z 1906/2006 11008KT P6SM VCSH BKN120
     FM190800 13008KT P6SM BKN080
     FM191300 14008KT P6SM VCSH BKN040
     FM192100 17008KT P6SM -SHRA BKN028
     FM192300 31007KT P6SM -SHRA BKN035
     FM200300 31010KT 5SM -SHRA BR OVC030=



000
FTUS43 KARX 190520
TAFLSE
TAF
KLSE 190520Z 1906/2006 11008KT P6SM VCSH BKN120
     FM190800 13008KT P6SM BKN080
     FM191300 14008KT P6SM VCSH BKN040
     FM192100 17008KT P6SM -SHRA BKN028
     FM192300 31007KT P6SM -SHRA BKN035
     FM200300 31010KT 5SM -SHRA BR OVC030=



000
FTUS43 KARX 190520
TAFRST
TAF
KRST 190520Z 1906/2006 12008KT P6SM -SHRA BKN050 OVC080
      TEMPO 1906/1907 4SM -SHRA BR
     FM191100 15013KT 5SM -SHRA BR BKN025
     FM191500 18011KT P6SM OVC014
     FM191900 28012KT P6SM -SHRA BKN030
     FM192200 31010KT 5SM -SHRA BR OVC028=



000
FTUS43 KARX 190520
TAFLSE
TAF
KLSE 190520Z 1906/2006 11008KT P6SM VCSH BKN120
     FM190800 13008KT P6SM BKN080
     FM191300 14008KT P6SM VCSH BKN040
     FM192100 17008KT P6SM -SHRA BKN028
     FM192300 31007KT P6SM -SHRA BKN035
     FM200300 31010KT 5SM -SHRA BR OVC030=



000
FTUS43 KARX 190520
TAFLSE
TAF
KLSE 190520Z 1906/2006 11008KT P6SM VCSH BKN120
     FM190800 13008KT P6SM BKN080
     FM191300 14008KT P6SM VCSH BKN040
     FM192100 17008KT P6SM -SHRA BKN028
     FM192300 31007KT P6SM -SHRA BKN035
     FM200300 31010KT 5SM -SHRA BR OVC030=



000
FTUS43 KARX 190520
TAFRST
TAF
KRST 190520Z 1906/2006 12008KT P6SM -SHRA BKN050 OVC080
      TEMPO 1906/1907 4SM -SHRA BR
     FM191100 15013KT 5SM -SHRA BR BKN025
     FM191500 18011KT P6SM OVC014
     FM191900 28012KT P6SM -SHRA BKN030
     FM192200 31010KT 5SM -SHRA BR OVC028=



000
FTUS43 KARX 190520
TAFRST
TAF
KRST 190520Z 1906/2006 12008KT P6SM -SHRA BKN050 OVC080
      TEMPO 1906/1907 4SM -SHRA BR
     FM191100 15013KT 5SM -SHRA BR BKN025
     FM191500 18011KT P6SM OVC014
     FM191900 28012KT P6SM -SHRA BKN030
     FM192200 31010KT 5SM -SHRA BR OVC028=



000
FTUS43 KARX 190158 AAA
TAFRST
TAF AMD
KRST 190158Z 1902/1924 15010KT P6SM -SHRA BKN050 OVC080
      TEMPO 1903/1906 4SM -SHRA BR
     FM191100 15013KT 5SM -SHRA BR BKN025
     FM191500 18011KT 5SM BR OVC014
     FM191900 28012KT 6SM BR BKN022=



000
FTUS43 KARX 182335
TAFRST
TAF
KRST 182335Z 1900/1924 11015KT P6SM BKN120
     FM190130 14013KT P6SM VCSH BKN070
      TEMPO 1902/1904 5SM -SHRA BR BKN060
     FM190600 13014KT P6SM -SHRA BKN050
     FM191100 15013KT 5SM -SHRA BR BKN025
     FM191500 18011KT 5SM BR OVC014
     FM191900 28012KT 6SM BR BKN022=



000
FTUS43 KARX 182335
TAFRST
TAF
KRST 182335Z 1900/1924 11015KT P6SM BKN120
     FM190130 14013KT P6SM VCSH BKN070
      TEMPO 1902/1904 5SM -SHRA BR BKN060
     FM190600 13014KT P6SM -SHRA BKN050
     FM191100 15013KT 5SM -SHRA BR BKN025
     FM191500 18011KT 5SM BR OVC014
     FM191900 28012KT 6SM BR BKN022=



000
FTUS43 KARX 182335
TAFLSE
TAF
KLSE 182335Z 1900/1924 11011KT P6SM BKN140
     FM190800 14010KT P6SM VCSH BKN080
     FM191400 15008KT P6SM -SHRA BKN040
     FM191600 16008KT 6SM SHRA BR BKN028
     FM192200 24007KT P6SM OVC020=



000
FTUS43 KARX 182335
TAFLSE
TAF
KLSE 182335Z 1900/1924 11011KT P6SM BKN140
     FM190800 14010KT P6SM VCSH BKN080
     FM191400 15008KT P6SM -SHRA BKN040
     FM191600 16008KT 6SM SHRA BR BKN028
     FM192200 24007KT P6SM OVC020=



000
FTUS43 KARX 182335
TAFRST
TAF
KRST 182335Z 1900/1924 11015KT P6SM BKN120
     FM190130 14013KT P6SM VCSH BKN070
      TEMPO 1902/1904 5SM -SHRA BR BKN060
     FM190600 13014KT P6SM -SHRA BKN050
     FM191100 15013KT 5SM -SHRA BR BKN025
     FM191500 18011KT 5SM BR OVC014
     FM191900 28012KT 6SM BR BKN022=



000
FTUS43 KARX 182335
TAFLSE
TAF
KLSE 182335Z 1900/1924 11011KT P6SM BKN140
     FM190800 14010KT P6SM VCSH BKN080
     FM191400 15008KT P6SM -SHRA BKN040
     FM191600 16008KT 6SM SHRA BR BKN028
     FM192200 24007KT P6SM OVC020=



000
FTUS43 KARX 182335
TAFRST
TAF
KRST 182335Z 1900/1924 11015KT P6SM BKN120
     FM190130 14013KT P6SM VCSH BKN070
      TEMPO 1902/1904 5SM -SHRA BR BKN060
     FM190600 13014KT P6SM -SHRA BKN050
     FM191100 15013KT 5SM -SHRA BR BKN025
     FM191500 18011KT 5SM BR OVC014
     FM191900 28012KT 6SM BR BKN022=



000
FTUS43 KARX 182335
TAFLSE
TAF
KLSE 182335Z 1900/1924 11011KT P6SM BKN140
     FM190800 14010KT P6SM VCSH BKN080
     FM191400 15008KT P6SM -SHRA BKN040
     FM191600 16008KT 6SM SHRA BR BKN028
     FM192200 24007KT P6SM OVC020=



000
FTUS43 KARX 181726
TAFRST
TAF
KRST 181726Z 1818/1918 10014G22KT P6SM BKN150
     FM190100 12015KT P6SM VCSH BKN080
     FM190400 12014KT P6SM -SHRA BKN050
     FM191400 16014KT 5SM -SHRA BKN025=



000
FTUS43 KARX 181726
TAFLSE
TAF
KLSE 181726Z 1818/1918 09012G18KT P6SM BKN200
     FM190000 10010KT P6SM BKN120
     FM190600 13010KT P6SM VCSH BKN080
     FM191400 15008KT P6SM VCSH BKN040=



000
FTUS43 KARX 181726
TAFRST
TAF
KRST 181726Z 1818/1918 10014G22KT P6SM BKN150
     FM190100 12015KT P6SM VCSH BKN080
     FM190400 12014KT P6SM -SHRA BKN050
     FM191400 16014KT 5SM -SHRA BKN025=



000
FTUS43 KARX 181726
TAFLSE
TAF
KLSE 181726Z 1818/1918 09012G18KT P6SM BKN200
     FM190000 10010KT P6SM BKN120
     FM190600 13010KT P6SM VCSH BKN080
     FM191400 15008KT P6SM VCSH BKN040=



000
FTUS43 KARX 181726
TAFRST
TAF
KRST 181726Z 1818/1918 10014G22KT P6SM BKN150
     FM190100 12015KT P6SM VCSH BKN080
     FM190400 12014KT P6SM -SHRA BKN050
     FM191400 16014KT 5SM -SHRA BKN025=



000
FTUS43 KARX 181726
TAFLSE
TAF
KLSE 181726Z 1818/1918 09012G18KT P6SM BKN200
     FM190000 10010KT P6SM BKN120
     FM190600 13010KT P6SM VCSH BKN080
     FM191400 15008KT P6SM VCSH BKN040=



000
FTUS43 KARX 181120
TAFLSE
TAF
KLSE 181120Z 1812/1912 VRB04KT P6SM BKN200
     FM181400 05006KT P6SM BKN200
     FM181600 09012G18KT P6SM BKN200
     FM190000 10010KT P6SM BKN120
     FM190600 12011KT P6SM VCSH BKN070=



000
FTUS43 KARX 181120
TAFLSE
TAF
KLSE 181120Z 1812/1912 VRB04KT P6SM BKN200
     FM181400 05006KT P6SM BKN200
     FM181600 09012G18KT P6SM BKN200
     FM190000 10010KT P6SM BKN120
     FM190600 12011KT P6SM VCSH BKN070=



000
FTUS43 KARX 181120
TAFRST
TAF
KRST 181120Z 1812/1912 08008KT P6SM BKN200
     FM181400 09012KT P6SM BKN200
     FM181600 10015G22KT P6SM BKN150
     FM190300 12014G22KT P6SM -SHRA BKN070
     FM190600 13015G22KT 6SM -SHRA BR SCT025 BKN050=



000
FTUS43 KARX 181120
TAFRST
TAF
KRST 181120Z 1812/1912 08008KT P6SM BKN200
     FM181400 09012KT P6SM BKN200
     FM181600 10015G22KT P6SM BKN150
     FM182300 11015G22KT P6SM VCSH BKN090
     FM190300 12014G22KT P6SM -SHRA BKN070
     FM190600 13015G22KT 6SM -SHRA BR SCT025 BKN050=



000
FTUS43 KARX 181120
TAFLSE
TAF
KLSE 181120Z 1812/1912 VRB04KT P6SM BKN200
     FM181400 05006KT P6SM BKN200
     FM181600 09012G18KT P6SM BKN200
     FM190000 10010KT P6SM BKN120
     FM190600 12011KT P6SM VCSH BKN070=



000
FTUS43 KARX 181120
TAFRST
TAF
KRST 181120Z 1812/1912 08008KT P6SM BKN200
     FM181400 09012KT P6SM BKN200
     FM181600 10015G22KT P6SM BKN150
     FM182300 11015G22KT P6SM VCSH BKN090
     FM190300 12014G22KT P6SM -SHRA BKN070
     FM190600 13015G22KT 6SM -SHRA BR SCT025 BKN050=



000
FTUS43 KARX 181120
TAFRST
TAF
KRST 181120Z 1812/1912 08008KT P6SM BKN200
     FM181400 09012KT P6SM BKN200
     FM181600 10015G22KT P6SM BKN150
     FM182300 11015G22KT P6SM VCSH BKN090
     FM190300 12014G22KT P6SM -SHRA BKN070
     FM190600 13015G22KT 6SM -SHRA BR SCT025 BKN050=



000
FTUS43 KARX 180917 AAB
TAFLSE
TAF AMD
KLSE 180917Z 1809/1906 VRB03KT P6SM SCT250
     FM181300 07007KT P6SM SCT250
     FM181600 10012G20KT P6SM SCT250
     FM190000 11010KT P6SM BKN060=



000
FTUS43 KARX 180917 AAB
TAFLSE
TAF AMD
KLSE 180917Z 1809/1906 VRB03KT P6SM SCT250
     FM181300 07007KT P6SM SCT250
     FM181600 10012G20KT P6SM SCT250
     FM190000 11010KT P6SM BKN060=



000
FTUS43 KARX 180737 AAA
TAFLSE
TAF AMD
KLSE 180737Z 1808/1906 VRB03KT P6SM SCT250
      TEMPO 1808/1812 3/4SM BR SCT004
     FM181300 07007KT P6SM SCT250
     FM181600 10012G20KT P6SM SCT250
     FM190000 11010KT P6SM BKN060=



000
FTUS43 KARX 180737 AAA
TAFLSE
TAF AMD
KLSE 180737Z 1808/1906 VRB03KT P6SM SCT250
      TEMPO 1808/1812 3/4SM BR SCT004
     FM181300 07007KT P6SM SCT250
     FM181600 10012G20KT P6SM SCT250
     FM190000 11010KT P6SM BKN060=



000
FTUS43 KARX 180737 AAA
TAFLSE
TAF AMD
KLSE 180737Z 1808/1906 VRB03KT P6SM SCT250
      TEMPO 1808/1812 3/4SM BR SCT004
     FM181300 07007KT P6SM SCT250
     FM181600 10012G20KT P6SM SCT250
     FM190000 11010KT P6SM BKN060=



000
FTUS43 KARX 180525
TAFLSE
TAF
KLSE 180525Z 1806/1906 VRB03KT P6SM SCT250
     FM181300 07007KT P6SM SCT250
     FM181600 10012G20KT P6SM SCT250
     FM190000 11010KT P6SM BKN060=



000
FTUS43 KARX 180525
TAFRST
TAF
KRST 180525Z 1806/1906 02007KT P6SM SCT250
     FM181400 09011KT P6SM BKN150
     FM181600 11015G22KT P6SM BKN150
     FM190300 12014G22KT P6SM VCSH BKN040=



000
FTUS43 KARX 180525
TAFRST
TAF
KRST 180525Z 1806/1906 02007KT P6SM SCT250
     FM181400 09011KT P6SM BKN150
     FM181600 11015G22KT P6SM BKN150
     FM190300 12014G22KT P6SM VCSH BKN040=



000
FTUS43 KARX 180525
TAFLSE
TAF
KLSE 180525Z 1806/1906 VRB03KT P6SM SCT250
     FM181300 07007KT P6SM SCT250
     FM181600 10012G20KT P6SM SCT250
     FM190000 11010KT P6SM BKN060=



000
FTUS43 KARX 172330
TAFLSE
TAF
KLSE 172330Z 1800/1824 33006KT P6SM SKC
     FM180200 VRB03KT P6SM SCT250
     FM181300 07007KT P6SM SCT250
     FM181600 09012G20KT P6SM SCT250=



000
FTUS43 KARX 172330
TAFRST
TAF
KRST 172330Z 1800/1824 33008KT P6SM SKC
     FM181400 09011KT P6SM BKN150
     FM181600 11015G22KT P6SM BKN150=



000
FTUS43 KARX 172330
TAFLSE
TAF
KLSE 172330Z 1800/1824 33006KT P6SM SKC
     FM180200 VRB03KT P6SM SCT250
     FM181300 07007KT P6SM SCT250
     FM181600 09012G20KT P6SM SCT250=



000
FTUS43 KARX 172330
TAFRST
TAF
KRST 172330Z 1800/1824 33008KT P6SM SKC
     FM181400 09011KT P6SM BKN150
     FM181600 11015G22KT P6SM BKN150=



000
FTUS43 KARX 172330
TAFRST
TAF
KRST 172330Z 1800/1824 33008KT P6SM SKC
     FM181400 09011KT P6SM BKN150
     FM181600 11015G22KT P6SM BKN150=



000
FTUS43 KARX 172330
TAFLSE
TAF
KLSE 172330Z 1800/1824 33006KT P6SM SKC
     FM180200 VRB03KT P6SM SCT250
     FM181300 07007KT P6SM SCT250
     FM181600 09012G20KT P6SM SCT250=



000
FTUS43 KARX 171720
TAFRST
TAF
KRST 171720Z 1718/1818 33007KT P6SM SKC
     FM180100 01005KT P6SM SCT200
     FM181500 10013KT P6SM BKN150=



000
FTUS43 KARX 171720
TAFRST
TAF
KRST 171720Z 1718/1818 33007KT P6SM SKC
     FM180100 01005KT P6SM SCT200
     FM181500 10013KT P6SM BKN150=



000
FTUS43 KARX 171720
TAFLSE
TAF
KLSE 171720Z 1718/1818 31006KT P6SM SKC
     FM180200 04003KT P6SM SCT200
     FM181600 09008KT P6SM BKN200=



000
FTUS43 KARX 171720
TAFLSE
TAF
KLSE 171720Z 1718/1818 31006KT P6SM SKC
     FM180200 04003KT P6SM SCT200
     FM181600 09008KT P6SM BKN200=



000
FTUS43 KARX 171120
TAFRST
TAF
KRST 171120Z 1712/1812 31006KT P6SM SCT070
     FM171600 34007KT P6SM SCT060
     FM180100 36005KT P6SM SCT200
     FM180800 06006KT P6SM BKN150=



000
FTUS43 KARX 171120
TAFLSE
TAF
KLSE 171120Z 1712/1812 18004KT P6SM SCT080
     FM171800 31006KT P6SM SCT060
     FM180200 06004KT P6SM SCT200=



000
FTUS43 KARX 171120
TAFRST
TAF
KRST 171120Z 1712/1812 31006KT P6SM SCT070
     FM171600 34007KT P6SM SCT060
     FM180100 36005KT P6SM SCT200
     FM180800 06006KT P6SM BKN150=



000
FTUS43 KARX 171120
TAFLSE
TAF
KLSE 171120Z 1712/1812 18004KT P6SM SCT080
     FM171800 31006KT P6SM SCT060
     FM180200 06004KT P6SM SCT200=



000
FTUS43 KARX 170525
TAFLSE
TAF
KLSE 170525Z 1706/1806 VRB03KT P6SM SCT080
     FM171800 29005KT P6SM SCT060=



000
FTUS43 KARX 170525
TAFRST
TAF
KRST 170525Z 1706/1806 25005KT P6SM SCT070
     FM171800 31006KT P6SM SCT060=



000
FTUS43 KARX 170525
TAFLSE
TAF
KLSE 170525Z 1706/1806 VRB03KT P6SM SCT080
     FM171800 29005KT P6SM SCT060=



000
FTUS43 KARX 170525
TAFRST
TAF
KRST 170525Z 1706/1806 25005KT P6SM SCT070
     FM171800 31006KT P6SM SCT060=



000
FTUS43 KARX 170525
TAFLSE
TAF
KLSE 170525Z 1706/1806 VRB03KT P6SM SCT080
     FM171800 29005KT P6SM SCT060=



000
FTUS43 KARX 170525
TAFRST
TAF
KRST 170525Z 1706/1806 25005KT P6SM SCT070
     FM171800 31006KT P6SM SCT060=



000
FTUS43 KARX 162330
TAFLSE
TAF
KLSE 162330Z 1700/1724 VRB03KT P6SM BKN080
     FM171800 27005KT P6SM SCT060=



000
FTUS43 KARX 162330
TAFRST
TAF
KRST 162330Z 1700/1724 25005KT P6SM BKN070
     FM171800 32006KT P6SM SCT060=



000
FTUS43 KARX 162330
TAFLSE
TAF
KLSE 162330Z 1700/1724 VRB03KT P6SM BKN080
     FM171800 27005KT P6SM SCT060=



000
FTUS43 KARX 162330
TAFLSE
TAF
KLSE 162330Z 1700/1724 VRB03KT P6SM BKN080
     FM171800 27005KT P6SM SCT060=



000
FTUS43 KARX 162330
TAFRST
TAF
KRST 162330Z 1700/1724 25005KT P6SM BKN070
     FM171800 32006KT P6SM SCT060=



000
FTUS43 KARX 162330
TAFRST
TAF
KRST 162330Z 1700/1724 25005KT P6SM BKN070
     FM171800 32006KT P6SM SCT060=



000
FTUS43 KARX 161720
TAFRST
TAF
KRST 161720Z 1618/1718 20009KT P6SM SCT070
     FM170700 27005KT P6SM SCT060
     FM171400 33005KT P6SM SCT060=



000
FTUS43 KARX 161720
TAFLSE
TAF
KLSE 161720Z 1618/1718 18006KT P6SM SCT080
     FM171000 VRB04KT P6SM SCT080=



000
FTUS43 KARX 161720
TAFLSE
TAF
KLSE 161720Z 1618/1718 18006KT P6SM SCT080
     FM171000 VRB04KT P6SM SCT080=



000
FTUS43 KARX 161720
TAFLSE
TAF
KLSE 161720Z 1618/1718 18006KT P6SM SCT080
     FM171000 VRB04KT P6SM SCT080=



000
FTUS43 KARX 161720
TAFRST
TAF
KRST 161720Z 1618/1718 20009KT P6SM SCT070
     FM170700 27005KT P6SM SCT060
     FM171400 33005KT P6SM SCT060=



000
FTUS43 KARX 161720
TAFLSE
TAF
KLSE 161720Z 1618/1718 18006KT P6SM SCT080
     FM171000 VRB04KT P6SM SCT080=



000
FTUS43 KARX 161720
TAFRST
TAF
KRST 161720Z 1618/1718 20009KT P6SM SCT070
     FM170700 27005KT P6SM SCT060
     FM171400 33005KT P6SM SCT060=



000
FTUS43 KARX 161720
TAFRST
TAF
KRST 161720Z 1618/1718 20009KT P6SM SCT070
     FM170700 27005KT P6SM SCT060
     FM171400 33005KT P6SM SCT060=



    US Dept of Commerce
    National Oceanic and Atmospheric Administration
    National Weather Service
    1325 East West Highway
    Silver Spring, MD 20910
    Page Author: NWS Internet Services Team
Disclaimer
Information Quality
Credits
Glossary
Privacy Policy
Freedom of Information Act (FOIA)
About Us
Career Opportunities